sensor_id;sensor_type;location;lat;lon;timestamp;temperature;humidity
5697;DHT22;2873;50.966;7.210;2024-01-27T00:00:07;7.50;99.90
5697;DHT22;2873;50.966;7.210;2024-01-27T00:02:33;7.30;99.90
5697;DHT22;2873;50.966;7.210;2024-01-27T00:04:59;7.40;99.90
5697;DHT22;2873;50.966;7.210;2024-01-27T00:07:24;7.50;99.90
5697;DHT22;2873;50.966;7.210;2024-01-27T00:09:52;7.40;99.90
5697;DHT22;2873;50.966;7.210;2024-01-27T00:12:17;7.40;99.90
5697;DHT22;2873;50.966;7.210;2024-01-27T00:14:43;7.50;99.90
5697;DHT22;2873;50.966;7.210;2024-01-27T00:17:09;7.30;99.90
5697;DHT22;2873;50.966;7.210;2024-01-27T00:19:35;7.20;99.90
5697;DHT22;2873;50.966;7.210;2024-01-27T00:22:01;7.00;99.90
5697;DHT22;2873;50.966;7.210;2024-01-27T00:24:27;7.20;99.90
5697;DHT22;2873;50.966;7.210;2024-01-27T00:26:53;7.20;99.90
5697;DHT22;2873;50.966;7.210;2024-01-27T00:29:19;7.20;99.90
5697;DHT22;2873;50.966;7.210;2024-01-27T00:31:44;7.20;99.90
5697;DHT22;2873;50.966;7.210;2024-01-27T00:34:10;7.10;99.90
5697;DHT22;2873;50.966;7.210;2024-01-27T00:36:35;7.10;99.90
5697;DHT22;2873;50.966;7.210;2024-01-27T00:39:03;7.20;99.90
5697;DHT22;2873;50.966;7.210;2024-01-27T00:41:28;7.20;99.90
5697;DHT22;2873;50.966;7.210;2024-01-27T00:43:54;7.20;99.90
5697;DHT22;2873;50.966;7.210;2024-01-27T00:46:19;7.30;99.90
5697;DHT22;2873;50.966;7.210;2024-01-27T00:48:45;7.30;99.90
5697;DHT22;2873;50.966;7.210;2024-01-27T00:51:10;7.30;99.90
5697;DHT22;2873;50.966;7.210;2024-01-27T00:53:36;7.30;99.90
5697;DHT22;2873;50.966;7.210;2024-01-27T00:56:01;7.20;99.90
5697;DHT22;2873;50.966;7.210;2024-01-27T00:58:28;7.10;99.90
5697;DHT22;2873;50.966;7.210;2024-01-27T01:00:53;7.10;99.90
5697;DHT22;2873;50.966;7.210;2024-01-27T01:03:19;7.00;99.90
5697;DHT22;2873;50.966;7.210;2024-01-27T01:05:44;6.80;99.90
5697;DHT22;2873;50.966;7.210;2024-01-27T01:08:10;6.80;99.90
5697;DHT22;2873;50.966;7.210;2024-01-27T01:10:35;6.80;99.90
5697;DHT22;2873;50.966;7.210;2024-01-27T01:13:01;6.90;99.90
5697;DHT22;2873;50.966;7.210;2024-01-27T01:15:26;6.90;99.90
5697;DHT22;2873;50.966;7.210;2024-01-27T01:17:52;6.90;99.90
5697;DHT22;2873;50.966;7.210;2024-01-27T01:20:18;6.90;99.90
5697;DHT22;2873;50.966;7.210;2024-01-27T01:22:43;6.80;99.90
5697;DHT22;2873;50.966;7.210;2024-01-27T01:25:09;6.50;99.90
5697;DHT22;2873;50.966;7.210;2024-01-27T01:27:34;6.50;99.90
5697;DHT22;2873;50.966;7.210;2024-01-27T01:30:00;6.50;99.90
5697;DHT22;2873;50.966;7.210;2024-01-27T01:32:25;6.40;99.90
5697;DHT22;2873;50.966;7.210;2024-01-27T01:34:51;6.30;99.90
5697;DHT22;2873;50.966;7.210;2024-01-27T01:37:16;6.40;99.90
5697;DHT22;2873;50.966;7.210;2024-01-27T01:39:42;6.50;99.90
5697;DHT22;2873;50.966;7.210;2024-01-27T01:42:07;6.50;99.90
5697;DHT22;2873;50.966;7.210;2024-01-27T01:44:33;6.50;99.90
5697;DHT22;2873;50.966;7.210;2024-01-27T01:46:58;6.40;99.90
5697;DHT22;2873;50.966;7.210;2024-01-27T01:49:24;6.30;99.90
5697;DHT22;2873;50.966;7.210;2024-01-27T01:51:50;6.30;99.90
5697;DHT22;2873;50.966;7.210;2024-01-27T01:54:15;6.20;99.90
5697;DHT22;2873;50.966;7.210;2024-01-27T01:56:42;6.20;99.90
5697;DHT22;2873;50.966;7.210;2024-01-27T01:59:08;6.20;99.90
5697;DHT22;2873;50.966;7.210;2024-01-27T02:01:34;6.20;99.90
5697;DHT22;2873;50.966;7.210;2024-01-27T02:03:59;6.10;99.90
5697;DHT22;2873;50.966;7.210;2024-01-27T02:06:25;6.10;99.90
5697;DHT22;2873;50.966;7.210;2024-01-27T02:08:51;6.10;99.90
5697;DHT22;2873;50.966;7.210;2024-01-27T02:11:17;6.20;99.90
5697;DHT22;2873;50.966;7.210;2024-01-27T02:13:42;6.00;99.90
5697;DHT22;2873;50.966;7.210;2024-01-27T02:16:08;6.10;99.90
5697;DHT22;2873;50.966;7.210;2024-01-27T02:18:34;5.80;99.90
5697;DHT22;2873;50.966;7.210;2024-01-27T02:21:00;5.80;99.90
5697;DHT22;2873;50.966;7.210;2024-01-27T02:23:25;5.90;99.90
5697;DHT22;2873;50.966;7.210;2024-01-27T02:25:51;5.90;99.90
5697;DHT22;2873;50.966;7.210;2024-01-27T02:28:17;6.00;99.90
5697;DHT22;2873;50.966;7.210;2024-01-27T02:30:43;5.80;99.90
5697;DHT22;2873;50.966;7.210;2024-01-27T02:33:09;5.80;99.90
5697;DHT22;2873;50.966;7.210;2024-01-27T02:35:34;5.60;99.90
5697;DHT22;2873;50.966;7.210;2024-01-27T02:38:00;5.70;99.90
5697;DHT22;2873;50.966;7.210;2024-01-27T02:40:26;5.60;99.90
5697;DHT22;2873;50.966;7.210;2024-01-27T02:42:54;5.40;99.90
5697;DHT22;2873;50.966;7.210;2024-01-27T02:45:20;5.20;99.90
5697;DHT22;2873;50.966;7.210;2024-01-27T02:47:46;5.40;99.90
5697;DHT22;2873;50.966;7.210;2024-01-27T02:50:11;5.40;99.90
5697;DHT22;2873;50.966;7.210;2024-01-27T02:52:37;5.10;99.90
5697;DHT22;2873;50.966;7.210;2024-01-27T02:55:02;5.10;99.90
5697;DHT22;2873;50.966;7.210;2024-01-27T02:57:28;5.20;99.90
5697;DHT22;2873;50.966;7.210;2024-01-27T02:59:54;5.00;99.90
5697;DHT22;2873;50.966;7.210;2024-01-27T03:02:19;5.00;99.90
5697;DHT22;2873;50.966;7.210;2024-01-27T03:04:45;5.10;99.90
5697;DHT22;2873;50.966;7.210;2024-01-27T03:07:10;5.00;99.90
5697;DHT22;2873;50.966;7.210;2024-01-27T03:09:36;4.50;99.90
5697;DHT22;2873;50.966;7.210;2024-01-27T03:12:01;4.80;99.90
5697;DHT22;2873;50.966;7.210;2024-01-27T03:14:27;5.00;99.90
5697;DHT22;2873;50.966;7.210;2024-01-27T03:16:53;4.90;99.90
5697;DHT22;2873;50.966;7.210;2024-01-27T03:19:18;4.90;99.90
5697;DHT22;2873;50.966;7.210;2024-01-27T03:21:44;4.70;99.90
5697;DHT22;2873;50.966;7.210;2024-01-27T03:24:09;4.90;99.90
5697;DHT22;2873;50.966;7.210;2024-01-27T03:26:35;4.80;99.90
5697;DHT22;2873;50.966;7.210;2024-01-27T03:29:00;4.80;99.90
5697;DHT22;2873;50.966;7.210;2024-01-27T03:31:35;4.90;99.90
5697;DHT22;2873;50.966;7.210;2024-01-27T03:34:01;5.00;99.90
5697;DHT22;2873;50.966;7.210;2024-01-27T03:36:27;4.80;99.90
5697;DHT22;2873;50.966;7.210;2024-01-27T03:38:53;4.80;99.90
5697;DHT22;2873;50.966;7.210;2024-01-27T03:41:19;4.80;99.90
5697;DHT22;2873;50.966;7.210;2024-01-27T03:43:45;4.90;99.90
5697;DHT22;2873;50.966;7.210;2024-01-27T03:46:10;4.70;99.90
5697;DHT22;2873;50.966;7.210;2024-01-27T03:48:36;4.60;99.90
5697;DHT22;2873;50.966;7.210;2024-01-27T03:51:02;4.80;99.90
5697;DHT22;2873;50.966;7.210;2024-01-27T03:53:28;4.80;99.90
5697;DHT22;2873;50.966;7.210;2024-01-27T03:55:53;4.80;99.90
5697;DHT22;2873;50.966;7.210;2024-01-27T03:58:19;4.80;99.90
5697;DHT22;2873;50.966;7.210;2024-01-27T04:00:45;4.80;99.90
5697;DHT22;2873;50.966;7.210;2024-01-27T04:03:10;4.90;99.90
5697;DHT22;2873;50.966;7.210;2024-01-27T04:05:36;4.70;99.90
5697;DHT22;2873;50.966;7.210;2024-01-27T04:08:02;4.80;99.90
5697;DHT22;2873;50.966;7.210;2024-01-27T04:10:28;4.80;99.90
5697;DHT22;2873;50.966;7.210;2024-01-27T04:12:53;4.80;99.90
5697;DHT22;2873;50.966;7.210;2024-01-27T04:15:19;4.70;99.90
5697;DHT22;2873;50.966;7.210;2024-01-27T04:17:44;4.80;99.90
5697;DHT22;2873;50.966;7.210;2024-01-27T04:20:10;4.80;99.90
5697;DHT22;2873;50.966;7.210;2024-01-27T04:22:36;4.70;99.90
5697;DHT22;2873;50.966;7.210;2024-01-27T04:25:02;4.80;99.90
5697;DHT22;2873;50.966;7.210;2024-01-27T04:27:29;4.60;99.90
5697;DHT22;2873;50.966;7.210;2024-01-27T04:29:55;4.60;99.90
5697;DHT22;2873;50.966;7.210;2024-01-27T04:32:22;4.60;99.90
5697;DHT22;2873;50.966;7.210;2024-01-27T04:34:48;4.50;99.90
5697;DHT22;2873;50.966;7.210;2024-01-27T04:37:13;4.60;99.90
5697;DHT22;2873;50.966;7.210;2024-01-27T04:39:39;4.50;99.90
5697;DHT22;2873;50.966;7.210;2024-01-27T04:42:05;4.60;99.90
5697;DHT22;2873;50.966;7.210;2024-01-27T04:44:32;4.60;99.90
5697;DHT22;2873;50.966;7.210;2024-01-27T04:46:57;4.50;99.90
5697;DHT22;2873;50.966;7.210;2024-01-27T04:49:23;4.50;99.90
5697;DHT22;2873;50.966;7.210;2024-01-27T04:51:48;4.60;99.90
5697;DHT22;2873;50.966;7.210;2024-01-27T04:54:14;4.30;99.90
5697;DHT22;2873;50.966;7.210;2024-01-27T04:56:39;4.40;99.90
5697;DHT22;2873;50.966;7.210;2024-01-27T04:59:05;4.50;99.90
5697;DHT22;2873;50.966;7.210;2024-01-27T05:01:31;4.50;99.90
5697;DHT22;2873;50.966;7.210;2024-01-27T05:03:57;4.50;99.90
5697;DHT22;2873;50.966;7.210;2024-01-27T05:06:23;4.30;99.90
5697;DHT22;2873;50.966;7.210;2024-01-27T05:08:48;4.40;99.90
5697;DHT22;2873;50.966;7.210;2024-01-27T05:11:15;4.40;99.90
5697;DHT22;2873;50.966;7.210;2024-01-27T05:13:40;4.30;99.90
5697;DHT22;2873;50.966;7.210;2024-01-27T05:16:06;4.20;99.90
5697;DHT22;2873;50.966;7.210;2024-01-27T05:18:32;4.10;99.90
5697;DHT22;2873;50.966;7.210;2024-01-27T05:20:57;4.10;99.90
5697;DHT22;2873;50.966;7.210;2024-01-27T05:23:23;4.10;99.90
5697;DHT22;2873;50.966;7.210;2024-01-27T05:25:49;4.00;99.90
5697;DHT22;2873;50.966;7.210;2024-01-27T05:28:14;4.10;99.90
5697;DHT22;2873;50.966;7.210;2024-01-27T05:30:40;4.20;99.90
5697;DHT22;2873;50.966;7.210;2024-01-27T05:33:05;4.20;99.90
5697;DHT22;2873;50.966;7.210;2024-01-27T05:35:31;4.00;99.90
5697;DHT22;2873;50.966;7.210;2024-01-27T05:37:57;4.00;99.90
5697;DHT22;2873;50.966;7.210;2024-01-27T05:40:22;4.10;99.90
5697;DHT22;2873;50.966;7.210;2024-01-27T05:42:48;4.00;99.90
5697;DHT22;2873;50.966;7.210;2024-01-27T05:45:14;4.00;99.90
5697;DHT22;2873;50.966;7.210;2024-01-27T05:47:40;4.10;99.90
5697;DHT22;2873;50.966;7.210;2024-01-27T05:50:06;3.90;99.90
5697;DHT22;2873;50.966;7.210;2024-01-27T05:52:34;3.80;99.90
5697;DHT22;2873;50.966;7.210;2024-01-27T05:54:59;3.90;99.90
5697;DHT22;2873;50.966;7.210;2024-01-27T05:57:25;3.80;99.90
5697;DHT22;2873;50.966;7.210;2024-01-27T05:59:50;3.90;99.90
5697;DHT22;2873;50.966;7.210;2024-01-27T06:02:16;3.90;99.90
5697;DHT22;2873;50.966;7.210;2024-01-27T06:04:43;3.80;99.90
5697;DHT22;2873;50.966;7.210;2024-01-27T06:07:08;3.90;99.90
5697;DHT22;2873;50.966;7.210;2024-01-27T06:09:34;3.90;99.90
5697;DHT22;2873;50.966;7.210;2024-01-27T06:12:00;3.90;99.90
5697;DHT22;2873;50.966;7.210;2024-01-27T06:14:29;3.80;99.90
5697;DHT22;2873;50.966;7.210;2024-01-27T06:16:54;3.90;99.90
5697;DHT22;2873;50.966;7.210;2024-01-27T06:19:20;3.90;99.90
5697;DHT22;2873;50.966;7.210;2024-01-27T06:21:46;3.80;99.90
5697;DHT22;2873;50.966;7.210;2024-01-27T06:24:11;3.90;99.90
5697;DHT22;2873;50.966;7.210;2024-01-27T06:26:37;3.90;99.90
5697;DHT22;2873;50.966;7.210;2024-01-27T06:29:03;3.70;99.90
5697;DHT22;2873;50.966;7.210;2024-01-27T06:31:29;3.60;99.90
5697;DHT22;2873;50.966;7.210;2024-01-27T06:33:55;3.70;99.90
5697;DHT22;2873;50.966;7.210;2024-01-27T06:36:20;3.70;99.90
5697;DHT22;2873;50.966;7.210;2024-01-27T06:38:50;3.30;99.90
5697;DHT22;2873;50.966;7.210;2024-01-27T06:41:15;3.60;99.90
5697;DHT22;2873;50.966;7.210;2024-01-27T06:43:41;3.50;99.90
5697;DHT22;2873;50.966;7.210;2024-01-27T06:46:07;3.50;99.90
5697;DHT22;2873;50.966;7.210;2024-01-27T06:48:32;3.60;99.90
5697;DHT22;2873;50.966;7.210;2024-01-27T06:50:58;3.60;99.90
5697;DHT22;2873;50.966;7.210;2024-01-27T06:53:23;3.40;99.90
5697;DHT22;2873;50.966;7.210;2024-01-27T06:55:49;3.60;99.90
5697;DHT22;2873;50.966;7.210;2024-01-27T06:58:14;3.40;99.90
5697;DHT22;2873;50.966;7.210;2024-01-27T07:00:40;3.60;99.90
5697;DHT22;2873;50.966;7.210;2024-01-27T07:03:06;3.60;99.90
5697;DHT22;2873;50.966;7.210;2024-01-27T07:05:31;3.70;99.90
5697;DHT22;2873;50.966;7.210;2024-01-27T07:07:59;3.50;99.90
5697;DHT22;2873;50.966;7.210;2024-01-27T07:10:25;3.50;99.90
5697;DHT22;2873;50.966;7.210;2024-01-27T07:12:51;3.50;99.90
5697;DHT22;2873;50.966;7.210;2024-01-27T07:15:16;3.60;99.90
5697;DHT22;2873;50.966;7.210;2024-01-27T07:17:42;3.60;99.90
5697;DHT22;2873;50.966;7.210;2024-01-27T07:20:08;3.60;99.90
5697;DHT22;2873;50.966;7.210;2024-01-27T07:22:33;3.40;99.90
5697;DHT22;2873;50.966;7.210;2024-01-27T07:24:59;3.40;99.90
5697;DHT22;2873;50.966;7.210;2024-01-27T07:27:24;3.40;99.90
5697;DHT22;2873;50.966;7.210;2024-01-27T07:29:50;3.50;99.90
5697;DHT22;2873;50.966;7.210;2024-01-27T07:32:16;3.40;99.90
5697;DHT22;2873;50.966;7.210;2024-01-27T07:34:43;3.60;99.90
5697;DHT22;2873;50.966;7.210;2024-01-27T07:37:09;3.60;99.90
5697;DHT22;2873;50.966;7.210;2024-01-27T07:39:35;3.50;99.90
5697;DHT22;2873;50.966;7.210;2024-01-27T07:42:01;3.60;99.90
5697;DHT22;2873;50.966;7.210;2024-01-27T07:44:27;3.50;99.90
5697;DHT22;2873;50.966;7.210;2024-01-27T07:46:52;3.60;99.90
5697;DHT22;2873;50.966;7.210;2024-01-27T07:49:18;3.70;99.90
5697;DHT22;2873;50.966;7.210;2024-01-27T07:51:43;3.70;99.90
5697;DHT22;2873;50.966;7.210;2024-01-27T07:54:09;3.70;99.90
5697;DHT22;2873;50.966;7.210;2024-01-27T07:56:35;3.70;99.90
5697;DHT22;2873;50.966;7.210;2024-01-27T07:59:00;3.60;99.90
5697;DHT22;2873;50.966;7.210;2024-01-27T08:01:26;3.60;99.90
5697;DHT22;2873;50.966;7.210;2024-01-27T08:03:51;3.50;99.90
5697;DHT22;2873;50.966;7.210;2024-01-27T08:06:19;3.70;99.90
5697;DHT22;2873;50.966;7.210;2024-01-27T08:08:48;3.60;99.90
5697;DHT22;2873;50.966;7.210;2024-01-27T08:11:14;3.60;99.90
5697;DHT22;2873;50.966;7.210;2024-01-27T08:13:41;3.70;99.90
5697;DHT22;2873;50.966;7.210;2024-01-27T08:16:08;3.60;99.90
5697;DHT22;2873;50.966;7.210;2024-01-27T08:18:36;3.70;99.90
5697;DHT22;2873;50.966;7.210;2024-01-27T08:21:03;3.80;99.90
5697;DHT22;2873;50.966;7.210;2024-01-27T08:23:29;4.00;99.90
5697;DHT22;2873;50.966;7.210;2024-01-27T08:25:54;4.00;99.90
5697;DHT22;2873;50.966;7.210;2024-01-27T08:28:20;4.20;99.90
5697;DHT22;2873;50.966;7.210;2024-01-27T08:30:45;4.30;99.90
5697;DHT22;2873;50.966;7.210;2024-01-27T08:33:11;4.50;99.90
5697;DHT22;2873;50.966;7.210;2024-01-27T08:35:36;4.40;99.90
5697;DHT22;2873;50.966;7.210;2024-01-27T08:38:02;4.40;99.90
5697;DHT22;2873;50.966;7.210;2024-01-27T08:40:29;4.60;99.90
5697;DHT22;2873;50.966;7.210;2024-01-27T08:42:55;4.70;99.90
5697;DHT22;2873;50.966;7.210;2024-01-27T08:45:20;4.60;99.90
5697;DHT22;2873;50.966;7.210;2024-01-27T08:47:46;4.50;99.90
5697;DHT22;2873;50.966;7.210;2024-01-27T08:50:11;4.90;99.90
5697;DHT22;2873;50.966;7.210;2024-01-27T08:52:37;4.70;99.90
5697;DHT22;2873;50.966;7.210;2024-01-27T08:55:03;4.80;99.90
5697;DHT22;2873;50.966;7.210;2024-01-27T08:57:28;5.10;99.90
5697;DHT22;2873;50.966;7.210;2024-01-27T08:59:54;5.10;99.90
5697;DHT22;2873;50.966;7.210;2024-01-27T09:02:19;5.20;99.90
5697;DHT22;2873;50.966;7.210;2024-01-27T09:04:45;5.50;99.90
5697;DHT22;2873;50.966;7.210;2024-01-27T09:07:11;5.90;99.90
5697;DHT22;2873;50.966;7.210;2024-01-27T09:09:37;6.30;99.90
5697;DHT22;2873;50.966;7.210;2024-01-27T09:12:04;6.90;99.90
5697;DHT22;2873;50.966;7.210;2024-01-27T09:14:29;7.20;99.90
5697;DHT22;2873;50.966;7.210;2024-01-27T09:16:55;7.70;99.90
5697;DHT22;2873;50.966;7.210;2024-01-27T09:19:21;8.00;99.90
5697;DHT22;2873;50.966;7.210;2024-01-27T09:21:47;8.20;99.90
5697;DHT22;2873;50.966;7.210;2024-01-27T09:24:12;8.50;99.90
5697;DHT22;2873;50.966;7.210;2024-01-27T09:26:38;8.60;99.90
5697;DHT22;2873;50.966;7.210;2024-01-27T09:29:04;8.60;99.90
5697;DHT22;2873;50.966;7.210;2024-01-27T09:31:30;8.50;99.90
5697;DHT22;2873;50.966;7.210;2024-01-27T09:33:56;8.40;99.90
5697;DHT22;2873;50.966;7.210;2024-01-27T09:36:21;8.50;99.90
5697;DHT22;2873;50.966;7.210;2024-01-27T09:38:47;8.70;99.90
5697;DHT22;2873;50.966;7.210;2024-01-27T09:41:14;9.10;99.90
5697;DHT22;2873;50.966;7.210;2024-01-27T09:43:44;9.50;99.90
5697;DHT22;2873;50.966;7.210;2024-01-27T09:46:14;9.80;99.90
5697;DHT22;2873;50.966;7.210;2024-01-27T09:48:40;10.10;99.90
5697;DHT22;2873;50.966;7.210;2024-01-27T09:51:07;10.40;99.90
5697;DHT22;2873;50.966;7.210;2024-01-27T09:53:33;10.60;99.90
5697;DHT22;2873;50.966;7.210;2024-01-27T09:55:59;10.90;99.90
5697;DHT22;2873;50.966;7.210;2024-01-27T09:58:28;11.10;99.90
5697;DHT22;2873;50.966;7.210;2024-01-27T10:00:58;11.30;99.90
5697;DHT22;2873;50.966;7.210;2024-01-27T10:03:28;11.60;99.90
5697;DHT22;2873;50.966;7.210;2024-01-27T10:05:55;11.80;99.90
5697;DHT22;2873;50.966;7.210;2024-01-27T10:08:22;11.60;99.90
5697;DHT22;2873;50.966;7.210;2024-01-27T10:10:54;12.00;99.90
5697;DHT22;2873;50.966;7.210;2024-01-27T10:13:21;11.80;99.90
5697;DHT22;2873;50.966;7.210;2024-01-27T10:16:00;11.30;99.90
5697;DHT22;2873;50.966;7.210;2024-01-27T10:18:26;11.60;99.90
5697;DHT22;2873;50.966;7.210;2024-01-27T10:20:52;11.40;99.90
5697;DHT22;2873;50.966;7.210;2024-01-27T10:23:17;11.60;99.90
5697;DHT22;2873;50.966;7.210;2024-01-27T10:25:43;11.60;99.90
5697;DHT22;2873;50.966;7.210;2024-01-27T10:28:09;11.80;99.90
5697;DHT22;2873;50.966;7.210;2024-01-27T10:30:35;12.10;99.90
5697;DHT22;2873;50.966;7.210;2024-01-27T10:33:01;12.10;99.90
5697;DHT22;2873;50.966;7.210;2024-01-27T10:35:27;12.20;99.90
5697;DHT22;2873;50.966;7.210;2024-01-27T10:37:53;12.10;99.90
5697;DHT22;2873;50.966;7.210;2024-01-27T10:40:20;12.20;99.90
5697;DHT22;2873;50.966;7.210;2024-01-27T10:42:46;12.50;99.90
5697;DHT22;2873;50.966;7.210;2024-01-27T10:45:12;12.50;99.90
5697;DHT22;2873;50.966;7.210;2024-01-27T10:47:39;12.90;99.90
5697;DHT22;2873;50.966;7.210;2024-01-27T10:50:09;13.00;99.90
5697;DHT22;2873;50.966;7.210;2024-01-27T10:52:39;13.20;99.90
5697;DHT22;2873;50.966;7.210;2024-01-27T10:55:10;13.20;99.90
5697;DHT22;2873;50.966;7.210;2024-01-27T10:57:37;13.10;99.90
5697;DHT22;2873;50.966;7.210;2024-01-27T11:00:04;13.40;99.90
5697;DHT22;2873;50.966;7.210;2024-01-27T11:02:35;12.90;99.90
5697;DHT22;2873;50.966;7.210;2024-01-27T11:05:04;12.50;99.90
5697;DHT22;2873;50.966;7.210;2024-01-27T11:07:33;12.40;99.90
5697;DHT22;2873;50.966;7.210;2024-01-27T11:09:59;12.30;99.90
5697;DHT22;2873;50.966;7.210;2024-01-27T11:12:25;11.80;99.90
5697;DHT22;2873;50.966;7.210;2024-01-27T11:14:52;12.10;99.90
5697;DHT22;2873;50.966;7.210;2024-01-27T11:17:21;11.70;99.90
5697;DHT22;2873;50.966;7.210;2024-01-27T11:19:47;11.80;99.90
5697;DHT22;2873;50.966;7.210;2024-01-27T11:22:25;11.70;99.90
5697;DHT22;2873;50.966;7.210;2024-01-27T11:25:08;11.80;99.90
5697;DHT22;2873;50.966;7.210;2024-01-27T11:27:34;11.70;99.90
5697;DHT22;2873;50.966;7.210;2024-01-27T11:30:00;11.70;99.90
5697;DHT22;2873;50.966;7.210;2024-01-27T11:32:26;11.80;99.90
5697;DHT22;2873;50.966;7.210;2024-01-27T11:34:52;12.10;99.90
5697;DHT22;2873;50.966;7.210;2024-01-27T11:37:18;12.30;99.90
5697;DHT22;2873;50.966;7.210;2024-01-27T11:39:45;12.50;99.90
5697;DHT22;2873;50.966;7.210;2024-01-27T11:42:12;12.30;99.90
5697;DHT22;2873;50.966;7.210;2024-01-27T11:44:39;12.50;99.90
5697;DHT22;2873;50.966;7.210;2024-01-27T11:47:08;12.50;99.90
5697;DHT22;2873;50.966;7.210;2024-01-27T11:49:38;12.40;99.90
5697;DHT22;2873;50.966;7.210;2024-01-27T11:52:06;12.90;99.90
5697;DHT22;2873;50.966;7.210;2024-01-27T11:54:32;12.70;99.90
5697;DHT22;2873;50.966;7.210;2024-01-27T11:56:57;13.00;99.90
5697;DHT22;2873;50.966;7.210;2024-01-27T11:59:23;13.30;99.90
5697;DHT22;2873;50.966;7.210;2024-01-27T12:01:49;13.30;99.90
5697;DHT22;2873;50.966;7.210;2024-01-27T12:04:15;13.20;99.90
5697;DHT22;2873;50.966;7.210;2024-01-27T12:06:43;13.00;99.90
5697;DHT22;2873;50.966;7.210;2024-01-27T12:09:09;13.10;99.90
5697;DHT22;2873;50.966;7.210;2024-01-27T12:11:38;13.30;99.90
5697;DHT22;2873;50.966;7.210;2024-01-27T12:14:07;12.80;99.90
5697;DHT22;2873;50.966;7.210;2024-01-27T12:16:32;12.80;99.90
5697;DHT22;2873;50.966;7.210;2024-01-27T12:18:58;12.50;99.90
5697;DHT22;2873;50.966;7.210;2024-01-27T12:21:24;13.00;99.90
5697;DHT22;2873;50.966;7.210;2024-01-27T12:23:50;13.10;99.90
5697;DHT22;2873;50.966;7.210;2024-01-27T12:26:16;12.60;99.90
5697;DHT22;2873;50.966;7.210;2024-01-27T12:28:45;12.80;99.90
5697;DHT22;2873;50.966;7.210;2024-01-27T12:31:12;13.00;99.90
5697;DHT22;2873;50.966;7.210;2024-01-27T12:33:37;13.20;99.90
5697;DHT22;2873;50.966;7.210;2024-01-27T12:36:07;13.30;99.90
5697;DHT22;2873;50.966;7.210;2024-01-27T12:38:33;13.30;99.90
5697;DHT22;2873;50.966;7.210;2024-01-27T12:40:58;13.40;99.90
5697;DHT22;2873;50.966;7.210;2024-01-27T12:43:24;13.50;99.90
5697;DHT22;2873;50.966;7.210;2024-01-27T12:45:50;13.20;99.90
5697;DHT22;2873;50.966;7.210;2024-01-27T12:48:15;13.20;99.90
5697;DHT22;2873;50.966;7.210;2024-01-27T12:50:41;13.40;99.90
5697;DHT22;2873;50.966;7.210;2024-01-27T12:53:06;13.70;99.90
5697;DHT22;2873;50.966;7.210;2024-01-27T12:55:32;13.30;99.90
5697;DHT22;2873;50.966;7.210;2024-01-27T12:57:57;13.30;99.90
5697;DHT22;2873;50.966;7.210;2024-01-27T13:00:23;13.00;99.90
5697;DHT22;2873;50.966;7.210;2024-01-27T13:02:49;13.40;99.90
5697;DHT22;2873;50.966;7.210;2024-01-27T13:05:15;13.00;99.90
5697;DHT22;2873;50.966;7.210;2024-01-27T13:07:40;13.30;99.90
5697;DHT22;2873;50.966;7.210;2024-01-27T13:10:06;12.90;99.90
5697;DHT22;2873;50.966;7.210;2024-01-27T13:12:32;12.80;99.90
5697;DHT22;2873;50.966;7.210;2024-01-27T13:14:57;12.80;99.90
5697;DHT22;2873;50.966;7.210;2024-01-27T13:17:23;12.70;99.90
5697;DHT22;2873;50.966;7.210;2024-01-27T13:19:48;12.80;99.90
5697;DHT22;2873;50.966;7.210;2024-01-27T13:22:14;13.10;99.90
5697;DHT22;2873;50.966;7.210;2024-01-27T13:24:39;12.60;99.90
5697;DHT22;2873;50.966;7.210;2024-01-27T13:27:05;12.90;99.90
5697;DHT22;2873;50.966;7.210;2024-01-27T13:29:31;13.00;99.90
5697;DHT22;2873;50.966;7.210;2024-01-27T13:31:58;13.20;99.90
5697;DHT22;2873;50.966;7.210;2024-01-27T13:34:27;12.70;99.90
5697;DHT22;2873;50.966;7.210;2024-01-27T13:36:53;13.00;99.90
5697;DHT22;2873;50.966;7.210;2024-01-27T13:39:19;12.80;99.90
5697;DHT22;2873;50.966;7.210;2024-01-27T13:41:44;12.80;99.90
5697;DHT22;2873;50.966;7.210;2024-01-27T13:44:10;12.50;99.90
5697;DHT22;2873;50.966;7.210;2024-01-27T13:46:35;12.80;99.90
5697;DHT22;2873;50.966;7.210;2024-01-27T13:49:01;12.70;99.90
5697;DHT22;2873;50.966;7.210;2024-01-27T13:51:27;13.00;99.90
5697;DHT22;2873;50.966;7.210;2024-01-27T13:53:52;12.80;99.90
5697;DHT22;2873;50.966;7.210;2024-01-27T13:56:18;12.70;99.90
5697;DHT22;2873;50.966;7.210;2024-01-27T13:58:43;12.90;99.90
5697;DHT22;2873;50.966;7.210;2024-01-27T14:01:09;12.50;99.90
5697;DHT22;2873;50.966;7.210;2024-01-27T14:03:35;12.60;99.90
5697;DHT22;2873;50.966;7.210;2024-01-27T14:06:00;12.60;99.90
5697;DHT22;2873;50.966;7.210;2024-01-27T14:08:26;12.50;99.90
5697;DHT22;2873;50.966;7.210;2024-01-27T14:10:51;12.30;99.90
5697;DHT22;2873;50.966;7.210;2024-01-27T14:13:18;12.50;99.90
5697;DHT22;2873;50.966;7.210;2024-01-27T14:15:44;12.40;99.90
5697;DHT22;2873;50.966;7.210;2024-01-27T14:18:09;12.20;99.90
5697;DHT22;2873;50.966;7.210;2024-01-27T14:20:39;12.20;99.90
5697;DHT22;2873;50.966;7.210;2024-01-27T14:23:04;12.20;99.90
5697;DHT22;2873;50.966;7.210;2024-01-27T14:25:30;12.10;99.90
5697;DHT22;2873;50.966;7.210;2024-01-27T14:27:56;11.90;99.90
5697;DHT22;2873;50.966;7.210;2024-01-27T14:30:21;12.40;99.90
5697;DHT22;2873;50.966;7.210;2024-01-27T14:32:48;12.40;99.90
5697;DHT22;2873;50.966;7.210;2024-01-27T14:35:13;12.40;99.90
5697;DHT22;2873;50.966;7.210;2024-01-27T14:37:39;12.30;99.90
5697;DHT22;2873;50.966;7.210;2024-01-27T14:40:05;12.20;99.90
5697;DHT22;2873;50.966;7.210;2024-01-27T14:42:31;12.20;99.90
5697;DHT22;2873;50.966;7.210;2024-01-27T14:44:56;12.00;99.90
5697;DHT22;2873;50.966;7.210;2024-01-27T14:47:22;11.80;99.90
5697;DHT22;2873;50.966;7.210;2024-01-27T14:49:48;11.80;99.90
5697;DHT22;2873;50.966;7.210;2024-01-27T14:52:13;12.00;99.90
5697;DHT22;2873;50.966;7.210;2024-01-27T14:54:41;11.90;99.90
5697;DHT22;2873;50.966;7.210;2024-01-27T14:57:06;11.90;99.90
5697;DHT22;2873;50.966;7.210;2024-01-27T14:59:35;11.70;99.90
5697;DHT22;2873;50.966;7.210;2024-01-27T15:02:00;11.70;99.90
5697;DHT22;2873;50.966;7.210;2024-01-27T15:04:27;11.90;99.90
5697;DHT22;2873;50.966;7.210;2024-01-27T15:06:56;11.60;99.90
5697;DHT22;2873;50.966;7.210;2024-01-27T15:09:22;11.80;99.90
5697;DHT22;2873;50.966;7.210;2024-01-27T15:11:49;11.90;99.90
5697;DHT22;2873;50.966;7.210;2024-01-27T15:14:15;11.90;99.90
5697;DHT22;2873;50.966;7.210;2024-01-27T15:16:40;12.00;99.90
5697;DHT22;2873;50.966;7.210;2024-01-27T15:19:07;11.70;99.90
5697;DHT22;2873;50.966;7.210;2024-01-27T15:21:32;11.50;99.90
5697;DHT22;2873;50.966;7.210;2024-01-27T15:23:58;11.60;99.90
5697;DHT22;2873;50.966;7.210;2024-01-27T15:26:24;11.40;99.90
5697;DHT22;2873;50.966;7.210;2024-01-27T15:28:49;11.50;99.90
5697;DHT22;2873;50.966;7.210;2024-01-27T15:31:15;11.50;99.90
5697;DHT22;2873;50.966;7.210;2024-01-27T15:33:41;11.30;99.90
5697;DHT22;2873;50.966;7.210;2024-01-27T15:36:07;11.30;99.90
5697;DHT22;2873;50.966;7.210;2024-01-27T15:38:32;11.30;99.90
5697;DHT22;2873;50.966;7.210;2024-01-27T15:40:58;11.30;99.90
5697;DHT22;2873;50.966;7.210;2024-01-27T15:43:24;11.40;99.90
5697;DHT22;2873;50.966;7.210;2024-01-27T15:45:49;11.30;99.90
5697;DHT22;2873;50.966;7.210;2024-01-27T15:48:17;11.30;99.90
5697;DHT22;2873;50.966;7.210;2024-01-27T15:50:43;11.20;99.90
5697;DHT22;2873;50.966;7.210;2024-01-27T15:53:10;11.20;99.90
5697;DHT22;2873;50.966;7.210;2024-01-27T15:55:35;11.10;99.90
5697;DHT22;2873;50.966;7.210;2024-01-27T15:58:01;11.10;99.90
5697;DHT22;2873;50.966;7.210;2024-01-27T16:00:27;11.10;99.90
5697;DHT22;2873;50.966;7.210;2024-01-27T16:02:53;11.00;99.90